sensor_id;sensor_type;location;lat;lon;timestamp;P1;durP1;ratioP1;P2;durP2;ratioP2
30874;SDS011;17581;43.222;27.924;2023-04-07T00:00:51;16.60;;;7.60;;
30874;SDS011;17581;43.222;27.924;2023-04-07T00:03:16;12.38;;;7.03;;
30874;SDS011;17581;43.222;27.924;2023-04-07T00:05:42;14.75;;;7.70;;
30874;SDS011;17581;43.222;27.924;2023-04-07T00:08:07;18.80;;;6.97;;
30874;SDS011;17581;43.222;27.924;2023-04-07T00:10:33;13.93;;;7.20;;
30874;SDS011;17581;43.222;27.924;2023-04-07T00:12:59;12.50;;;7.20;;
30874;SDS011;17581;43.222;27.924;2023-04-07T00:15:24;14.60;;;7.30;;
30874;SDS011;17581;43.222;27.924;2023-04-07T00:17:50;23.67;;;7.75;;
30874;SDS011;17581;43.222;27.924;2023-04-07T00:20:16;21.52;;;8.20;;
30874;SDS011;17581;43.222;27.924;2023-04-07T00:22:41;22.00;;;8.68;;
30874;SDS011;17581;43.222;27.924;2023-04-07T00:25:07;11.38;;;6.45;;
30874;SDS011;17581;43.222;27.924;2023-04-07T00:27:32;13.80;;;7.00;;
30874;SDS011;17581;43.222;27.924;2023-04-07T00:29:58;13.35;;;7.15;;
30874;SDS011;17581;43.222;27.924;2023-04-07T00:32:23;16.73;;;8.52;;
30874;SDS011;17581;43.222;27.924;2023-04-07T00:34:49;13.90;;;7.45;;
30874;SDS011;17581;43.222;27.924;2023-04-07T00:37:15;17.80;;;6.85;;
30874;SDS011;17581;43.222;27.924;2023-04-07T00:39:40;12.65;;;6.65;;
30874;SDS011;17581;43.222;27.924;2023-04-07T00:42:06;14.93;;;7.25;;
30874;SDS011;17581;43.222;27.924;2023-04-07T00:44:32;11.60;;;7.13;;
30874;SDS011;17581;43.222;27.924;2023-04-07T00:46:58;12.88;;;7.50;;
30874;SDS011;17581;43.222;27.924;2023-04-07T00:49:24;19.15;;;7.47;;
30874;SDS011;17581;43.222;27.924;2023-04-07T00:51:50;13.80;;;7.90;;
30874;SDS011;17581;43.222;27.924;2023-04-07T00:54:16;15.75;;;7.20;;
30874;SDS011;17581;43.222;27.924;2023-04-07T00:56:42;13.70;;;8.07;;
30874;SDS011;17581;43.222;27.924;2023-04-07T00:59:08;11.20;;;7.20;;
30874;SDS011;17581;43.222;27.924;2023-04-07T01:04:31;17.50;;;7.95;;
30874;SDS011;17581;43.222;27.924;2023-04-07T01:07:03;13.73;;;7.40;;
30874;SDS011;17581;43.222;27.924;2023-04-07T01:09:38;16.30;;;7.95;;
30874;SDS011;17581;43.222;27.924;2023-04-07T01:12:25;11.52;;;7.15;;
30874;SDS011;17581;43.222;27.924;2023-04-07T01:14:59;14.32;;;7.10;;
30874;SDS011;17581;43.222;27.924;2023-04-07T01:17:33;15.68;;;6.43;;
30874;SDS011;17581;43.222;27.924;2023-04-07T01:20:01;14.73;;;7.97;;
30874;SDS011;17581;43.222;27.924;2023-04-07T01:22:39;21.80;;;8.48;;
30874;SDS011;17581;43.222;27.924;2023-04-07T01:31:02;10.80;;;7.10;;
30874;SDS011;17581;43.222;27.924;2023-04-07T01:33:30;16.25;;;8.25;;
30874;SDS011;17581;43.222;27.924;2023-04-07T01:35:58;13.85;;;7.28;;
30874;SDS011;17581;43.222;27.924;2023-04-07T01:38:25;19.08;;;8.13;;
30874;SDS011;17581;43.222;27.924;2023-04-07T01:40:53;12.57;;;7.47;;
30874;SDS011;17581;43.222;27.924;2023-04-07T01:43:20;14.77;;;7.45;;
30874;SDS011;17581;43.222;27.924;2023-04-07T01:45:47;11.60;;;6.85;;
30874;SDS011;17581;43.222;27.924;2023-04-07T01:48:14;16.20;;;7.15;;
30874;SDS011;17581;43.222;27.924;2023-04-07T01:50:40;12.15;;;6.78;;
30874;SDS011;17581;43.222;27.924;2023-04-07T01:53:07;10.80;;;6.97;;
30874;SDS011;17581;43.222;27.924;2023-04-07T01:55:33;16.10;;;7.65;;
30874;SDS011;17581;43.222;27.924;2023-04-07T01:58:03;23.48;;;8.68;;
30874;SDS011;17581;43.222;27.924;2023-04-07T02:00:30;20.65;;;9.93;;
30874;SDS011;17581;43.222;27.924;2023-04-07T02:02:57;16.35;;;7.70;;
30874;SDS011;17581;43.222;27.924;2023-04-07T02:05:29;12.80;;;8.60;;
30874;SDS011;17581;43.222;27.924;2023-04-07T02:07:57;15.73;;;8.73;;
30874;SDS011;17581;43.222;27.924;2023-04-07T02:10:26;17.50;;;8.82;;
30874;SDS011;17581;43.222;27.924;2023-04-07T02:12:53;17.10;;;9.07;;
30874;SDS011;17581;43.222;27.924;2023-04-07T02:15:20;16.95;;;8.90;;
30874;SDS011;17581;43.222;27.924;2023-04-07T02:17:48;16.67;;;8.75;;
30874;SDS011;17581;43.222;27.924;2023-04-07T02:20:16;21.27;;;10.38;;
30874;SDS011;17581;43.222;27.924;2023-04-07T02:22:42;21.38;;;11.07;;
30874;SDS011;17581;43.222;27.924;2023-04-07T02:28:05;16.60;;;9.68;;
30874;SDS011;17581;43.222;27.924;2023-04-07T02:30:31;23.63;;;10.15;;
30874;SDS011;17581;43.222;27.924;2023-04-07T02:32:57;21.30;;;10.10;;
30874;SDS011;17581;43.222;27.924;2023-04-07T02:35:23;30.88;;;10.73;;
30874;SDS011;17581;43.222;27.924;2023-04-07T02:37:48;24.48;;;9.85;;
30874;SDS011;17581;43.222;27.924;2023-04-07T02:40:14;23.17;;;10.07;;
30874;SDS011;17581;43.222;27.924;2023-04-07T02:42:40;17.27;;;9.80;;
30874;SDS011;17581;43.222;27.924;2023-04-07T02:45:06;22.95;;;10.43;;
30874;SDS011;17581;43.222;27.924;2023-04-07T02:47:33;19.35;;;10.02;;
30874;SDS011;17581;43.222;27.924;2023-04-07T02:49:59;19.60;;;9.40;;
30874;SDS011;17581;43.222;27.924;2023-04-07T02:52:25;17.83;;;8.80;;
30874;SDS011;17581;43.222;27.924;2023-04-07T02:54:50;12.88;;;8.40;;
30874;SDS011;17581;43.222;27.924;2023-04-07T02:57:16;14.77;;;9.27;;
30874;SDS011;17581;43.222;27.924;2023-04-07T02:59:41;19.70;;;9.25;;
30874;SDS011;17581;43.222;27.924;2023-04-07T03:02:07;19.50;;;8.70;;
30874;SDS011;17581;43.222;27.924;2023-04-07T03:04:33;22.25;;;11.20;;
30874;SDS011;17581;43.222;27.924;2023-04-07T03:06:58;15.55;;;9.45;;
30874;SDS011;17581;43.222;27.924;2023-04-07T03:09:24;23.55;;;9.32;;
30874;SDS011;17581;43.222;27.924;2023-04-07T03:11:50;25.17;;;9.38;;
30874;SDS011;17581;43.222;27.924;2023-04-07T03:14:16;21.70;;;10.48;;
30874;SDS011;17581;43.222;27.924;2023-04-07T03:16:41;15.43;;;9.77;;
30874;SDS011;17581;43.222;27.924;2023-04-07T03:19:07;27.77;;;9.70;;
30874;SDS011;17581;43.222;27.924;2023-04-07T03:21:33;21.88;;;10.40;;
30874;SDS011;17581;43.222;27.924;2023-04-07T03:24:00;19.60;;;9.65;;
30874;SDS011;17581;43.222;27.924;2023-04-07T03:26:25;21.73;;;10.40;;
30874;SDS011;17581;43.222;27.924;2023-04-07T03:28:51;27.63;;;10.93;;
30874;SDS011;17581;43.222;27.924;2023-04-07T03:31:17;30.45;;;11.27;;
30874;SDS011;17581;43.222;27.924;2023-04-07T03:33:42;17.90;;;10.55;;
30874;SDS011;17581;43.222;27.924;2023-04-07T03:36:07;22.58;;;10.50;;
30874;SDS011;17581;43.222;27.924;2023-04-07T03:38:33;16.92;;;10.68;;
30874;SDS011;17581;43.222;27.924;2023-04-07T03:40:58;16.90;;;9.63;;
30874;SDS011;17581;43.222;27.924;2023-04-07T03:43:24;23.35;;;10.15;;
30874;SDS011;17581;43.222;27.924;2023-04-07T03:45:51;21.45;;;11.07;;
30874;SDS011;17581;43.222;27.924;2023-04-07T03:48:17;25.25;;;11.77;;
30874;SDS011;17581;43.222;27.924;2023-04-07T03:50:44;21.98;;;11.15;;
30874;SDS011;17581;43.222;27.924;2023-04-07T03:53:10;20.73;;;11.23;;
30874;SDS011;17581;43.222;27.924;2023-04-07T03:55:35;25.15;;;12.13;;
30874;SDS011;17581;43.222;27.924;2023-04-07T03:58:01;21.23;;;12.38;;
30874;SDS011;17581;43.222;27.924;2023-04-07T04:00:27;21.30;;;12.05;;
30874;SDS011;17581;43.222;27.924;2023-04-07T04:02:52;30.58;;;13.18;;
30874;SDS011;17581;43.222;27.924;2023-04-07T04:05:18;24.33;;;11.90;;
30874;SDS011;17581;43.222;27.924;2023-04-07T04:07:43;22.98;;;12.07;;
30874;SDS011;17581;43.222;27.924;2023-04-07T04:10:09;30.17;;;12.43;;
30874;SDS011;17581;43.222;27.924;2023-04-07T04:12:34;28.35;;;12.82;;
30874;SDS011;17581;43.222;27.924;2023-04-07T04:15:00;29.67;;;13.10;;
30874;SDS011;17581;43.222;27.924;2023-04-07T04:17:26;29.35;;;13.25;;
30874;SDS011;17581;43.222;27.924;2023-04-07T04:19:51;31.98;;;13.63;;
30874;SDS011;17581;43.222;27.924;2023-04-07T04:22:18;32.85;;;12.77;;
30874;SDS011;17581;43.222;27.924;2023-04-07T04:24:43;32.20;;;13.52;;
30874;SDS011;17581;43.222;27.924;2023-04-07T04:27:09;35.88;;;14.35;;
30874;SDS011;17581;43.222;27.924;2023-04-07T04:29:34;39.22;;;14.30;;
30874;SDS011;17581;43.222;27.924;2023-04-07T04:32:00;40.67;;;14.30;;
30874;SDS011;17581;43.222;27.924;2023-04-07T04:34:26;42.17;;;15.90;;
30874;SDS011;17581;43.222;27.924;2023-04-07T04:36:51;48.75;;;17.00;;
30874;SDS011;17581;43.222;27.924;2023-04-07T04:39:17;50.00;;;15.57;;
30874;SDS011;17581;43.222;27.924;2023-04-07T04:41:43;28.20;;;14.55;;
30874;SDS011;17581;43.222;27.924;2023-04-07T04:44:09;42.17;;;13.85;;
30874;SDS011;17581;43.222;27.924;2023-04-07T04:46:34;23.60;;;13.95;;
30874;SDS011;17581;43.222;27.924;2023-04-07T04:49:00;29.88;;;14.18;;
30874;SDS011;17581;43.222;27.924;2023-04-07T04:51:25;58.03;;;16.38;;
30874;SDS011;17581;43.222;27.924;2023-04-07T04:53:51;38.97;;;13.88;;
30874;SDS011;17581;43.222;27.924;2023-04-07T04:56:17;71.68;;;18.33;;
30874;SDS011;17581;43.222;27.924;2023-04-07T04:58:42;37.47;;;14.35;;
30874;SDS011;17581;43.222;27.924;2023-04-07T05:01:13;40.92;;;13.88;;
30874;SDS011;17581;43.222;27.924;2023-04-07T05:03:39;25.35;;;12.85;;
30874;SDS011;17581;43.222;27.924;2023-04-07T05:06:04;53.67;;;15.20;;
30874;SDS011;17581;43.222;27.924;2023-04-07T05:08:30;48.47;;;15.02;;
30874;SDS011;17581;43.222;27.924;2023-04-07T05:10:56;33.28;;;14.32;;
30874;SDS011;17581;43.222;27.924;2023-04-07T05:13:21;28.70;;;15.18;;
30874;SDS011;17581;43.222;27.924;2023-04-07T05:15:47;52.10;;;16.83;;
30874;SDS011;17581;43.222;27.924;2023-04-07T05:18:12;31.20;;;13.70;;
30874;SDS011;17581;43.222;27.924;2023-04-07T05:20:38;34.97;;;15.05;;
30874;SDS011;17581;43.222;27.924;2023-04-07T05:23:03;37.63;;;14.88;;
30874;SDS011;17581;43.222;27.924;2023-04-07T05:25:29;35.42;;;15.55;;
30874;SDS011;17581;43.222;27.924;2023-04-07T05:27:55;40.10;;;15.32;;
30874;SDS011;17581;43.222;27.924;2023-04-07T05:30:21;39.25;;;15.75;;
30874;SDS011;17581;43.222;27.924;2023-04-07T05:32:46;31.98;;;16.35;;
30874;SDS011;17581;43.222;27.924;2023-04-07T05:35:12;40.00;;;16.75;;
30874;SDS011;17581;43.222;27.924;2023-04-07T05:37:37;44.47;;;17.25;;
30874;SDS011;17581;43.222;27.924;2023-04-07T05:40:03;30.55;;;15.57;;
30874;SDS011;17581;43.222;27.924;2023-04-07T05:42:30;36.15;;;16.05;;
30874;SDS011;17581;43.222;27.924;2023-04-07T05:44:55;29.85;;;14.63;;
30874;SDS011;17581;43.222;27.924;2023-04-07T05:47:21;54.00;;;16.30;;
30874;SDS011;17581;43.222;27.924;2023-04-07T05:49:46;43.58;;;15.20;;
30874;SDS011;17581;43.222;27.924;2023-04-07T05:52:12;36.72;;;15.80;;
30874;SDS011;17581;43.222;27.924;2023-04-07T05:54:38;36.75;;;14.82;;
30874;SDS011;17581;43.222;27.924;2023-04-07T05:57:06;37.33;;;15.05;;
30874;SDS011;17581;43.222;27.924;2023-04-07T05:59:35;25.58;;;13.98;;
30874;SDS011;17581;43.222;27.924;2023-04-07T06:02:01;28.85;;;14.02;;
30874;SDS011;17581;43.222;27.924;2023-04-07T06:04:28;29.88;;;14.50;;
30874;SDS011;17581;43.222;27.924;2023-04-07T06:06:53;34.53;;;14.48;;
30874;SDS011;17581;43.222;27.924;2023-04-07T06:09:22;69.57;;;17.45;;
30874;SDS011;17581;43.222;27.924;2023-04-07T06:11:48;39.03;;;15.93;;
30874;SDS011;17581;43.222;27.924;2023-04-07T06:14:13;30.98;;;13.68;;
30874;SDS011;17581;43.222;27.924;2023-04-07T06:16:39;44.97;;;14.88;;
30874;SDS011;17581;43.222;27.924;2023-04-07T06:19:05;30.42;;;14.55;;
30874;SDS011;17581;43.222;27.924;2023-04-07T06:21:31;61.33;;;15.40;;
30874;SDS011;17581;43.222;27.924;2023-04-07T06:23:57;44.17;;;15.98;;
30874;SDS011;17581;43.222;27.924;2023-04-07T06:26:23;33.72;;;13.68;;
30874;SDS011;17581;43.222;27.924;2023-04-07T06:28:48;25.60;;;13.57;;
30874;SDS011;17581;43.222;27.924;2023-04-07T06:31:14;32.55;;;15.32;;
30874;SDS011;17581;43.222;27.924;2023-04-07T06:33:39;23.73;;;14.07;;
30874;SDS011;17581;43.222;27.924;2023-04-07T06:36:05;25.70;;;14.40;;
30874;SDS011;17581;43.222;27.924;2023-04-07T06:38:31;32.40;;;15.57;;
30874;SDS011;17581;43.222;27.924;2023-04-07T06:40:56;39.97;;;14.90;;
30874;SDS011;17581;43.222;27.924;2023-04-07T06:43:22;29.52;;;14.52;;
30874;SDS011;17581;43.222;27.924;2023-04-07T06:45:47;22.02;;;13.38;;
30874;SDS011;17581;43.222;27.924;2023-04-07T06:48:13;22.70;;;14.30;;
30874;SDS011;17581;43.222;27.924;2023-04-07T06:50:38;29.50;;;15.75;;
30874;SDS011;17581;43.222;27.924;2023-04-07T06:53:03;23.50;;;14.60;;
30874;SDS011;17581;43.222;27.924;2023-04-07T06:55:30;22.45;;;14.55;;
30874;SDS011;17581;43.222;27.924;2023-04-07T06:57:55;30.85;;;15.02;;
30874;SDS011;17581;43.222;27.924;2023-04-07T07:00:21;42.08;;;15.70;;
30874;SDS011;17581;43.222;27.924;2023-04-07T07:02:50;27.35;;;12.98;;
30874;SDS011;17581;43.222;27.924;2023-04-07T07:05:15;33.80;;;15.18;;
30874;SDS011;17581;43.222;27.924;2023-04-07T07:07:41;27.70;;;14.98;;
30874;SDS011;17581;43.222;27.924;2023-04-07T07:10:07;41.60;;;15.35;;
30874;SDS011;17581;43.222;27.924;2023-04-07T07:12:34;33.90;;;13.98;;
30874;SDS011;17581;43.222;27.924;2023-04-07T07:15:00;33.40;;;14.07;;
30874;SDS011;17581;43.222;27.924;2023-04-07T07:17:25;27.38;;;12.95;;
30874;SDS011;17581;43.222;27.924;2023-04-07T07:19:50;51.00;;;14.68;;
30874;SDS011;17581;43.222;27.924;2023-04-07T07:22:16;42.60;;;14.38;;
30874;SDS011;17581;43.222;27.924;2023-04-07T07:24:41;32.53;;;13.35;;
30874;SDS011;17581;43.222;27.924;2023-04-07T07:27:07;43.67;;;14.23;;
30874;SDS011;17581;43.222;27.924;2023-04-07T07:29:32;27.92;;;13.68;;
30874;SDS011;17581;43.222;27.924;2023-04-07T07:31:58;33.20;;;13.80;;
30874;SDS011;17581;43.222;27.924;2023-04-07T07:34:23;30.85;;;12.38;;
30874;SDS011;17581;43.222;27.924;2023-04-07T07:36:48;31.98;;;14.27;;
30874;SDS011;17581;43.222;27.924;2023-04-07T07:39:14;22.60;;;12.02;;
30874;SDS011;17581;43.222;27.924;2023-04-07T07:41:39;27.80;;;14.30;;
30874;SDS011;17581;43.222;27.924;2023-04-07T07:44:05;28.23;;;13.57;;
30874;SDS011;17581;43.222;27.924;2023-04-07T07:46:31;27.83;;;12.73;;
30874;SDS011;17581;43.222;27.924;2023-04-07T07:48:56;31.55;;;12.57;;
30874;SDS011;17581;43.222;27.924;2023-04-07T07:51:22;35.53;;;13.38;;
30874;SDS011;17581;43.222;27.924;2023-04-07T07:53:47;28.60;;;13.68;;
30874;SDS011;17581;43.222;27.924;2023-04-07T07:56:13;29.92;;;13.98;;
30874;SDS011;17581;43.222;27.924;2023-04-07T07:58:38;41.28;;;14.25;;
30874;SDS011;17581;43.222;27.924;2023-04-07T08:01:04;20.05;;;11.82;;
30874;SDS011;17581;43.222;27.924;2023-04-07T08:03:29;27.92;;;13.27;;
30874;SDS011;17581;43.222;27.924;2023-04-07T08:05:55;35.28;;;13.30;;
30874;SDS011;17581;43.222;27.924;2023-04-07T08:08:21;19.50;;;11.57;;
30874;SDS011;17581;43.222;27.924;2023-04-07T08:10:46;21.40;;;12.18;;
30874;SDS011;17581;43.222;27.924;2023-04-07T08:13:12;46.13;;;13.48;;
30874;SDS011;17581;43.222;27.924;2023-04-07T08:15:38;26.40;;;11.57;;
30874;SDS011;17581;43.222;27.924;2023-04-07T08:18:04;28.48;;;12.80;;
30874;SDS011;17581;43.222;27.924;2023-04-07T08:20:30;25.58;;;13.82;;
30874;SDS011;17581;43.222;27.924;2023-04-07T08:22:56;29.08;;;11.73;;
30874;SDS011;17581;43.222;27.924;2023-04-07T08:25:22;28.98;;;13.40;;
30874;SDS011;17581;43.222;27.924;2023-04-07T08:27:47;39.03;;;12.18;;
30874;SDS011;17581;43.222;27.924;2023-04-07T08:30:13;33.40;;;11.57;;
30874;SDS011;17581;43.222;27.924;2023-04-07T08:32:39;27.38;;;11.15;;
30874;SDS011;17581;43.222;27.924;2023-04-07T08:35:07;27.80;;;12.82;;
30874;SDS011;17581;43.222;27.924;2023-04-07T08:37:33;33.65;;;12.52;;
30874;SDS011;17581;43.222;27.924;2023-04-07T08:39:59;30.85;;;12.23;;
30874;SDS011;17581;43.222;27.924;2023-04-07T08:42:29;48.63;;;13.13;;
30874;SDS011;17581;43.222;27.924;2023-04-07T08:44:56;33.53;;;17.70;;
30874;SDS011;17581;43.222;27.924;2023-04-07T08:47:26;32.92;;;12.77;;
30874;SDS011;17581;43.222;27.924;2023-04-07T08:49:56;26.70;;;12.23;;
30874;SDS011;17581;43.222;27.924;2023-04-07T08:52:26;41.30;;;15.20;;
30874;SDS011;17581;43.222;27.924;2023-04-07T08:54:58;23.80;;;12.80;;
30874;SDS011;17581;43.222;27.924;2023-04-07T08:57:28;30.38;;;12.60;;
30874;SDS011;17581;43.222;27.924;2023-04-07T08:59:55;36.22;;;15.00;;
30874;SDS011;17581;43.222;27.924;2023-04-07T09:02:24;31.27;;;13.88;;
30874;SDS011;17581;43.222;27.924;2023-04-07T09:04:50;29.42;;;11.95;;
30874;SDS011;17581;43.222;27.924;2023-04-07T09:07:16;24.23;;;12.20;;
30874;SDS011;17581;43.222;27.924;2023-04-07T09:09:41;23.83;;;13.32;;
30874;SDS011;17581;43.222;27.924;2023-04-07T09:12:07;24.20;;;11.65;;
30874;SDS011;17581;43.222;27.924;2023-04-07T09:14:32;26.17;;;13.93;;
30874;SDS011;17581;43.222;27.924;2023-04-07T09:16:58;31.80;;;13.10;;
30874;SDS011;17581;43.222;27.924;2023-04-07T09:19:25;25.75;;;12.27;;
30874;SDS011;17581;43.222;27.924;2023-04-07T09:21:51;26.15;;;12.15;;
30874;SDS011;17581;43.222;27.924;2023-04-07T09:24:24;32.10;;;12.98;;
30874;SDS011;17581;43.222;27.924;2023-04-07T09:29:36;36.00;;;13.63;;
30874;SDS011;17581;43.222;27.924;2023-04-07T09:32:02;122.93;;;22.27;;
30874;SDS011;17581;43.222;27.924;2023-04-07T09:34:29;32.45;;;13.70;;
30874;SDS011;17581;43.222;27.924;2023-04-07T09:36:56;38.17;;;14.07;;
30874;SDS011;17581;43.222;27.924;2023-04-07T09:39:22;28.55;;;12.88;;
30874;SDS011;17581;43.222;27.924;2023-04-07T09:41:49;32.55;;;14.05;;
30874;SDS011;17581;43.222;27.924;2023-04-07T09:44:16;27.60;;;12.68;;
30874;SDS011;17581;43.222;27.924;2023-04-07T09:46:55;36.97;;;12.82;;
30874;SDS011;17581;43.222;27.924;2023-04-07T09:49:22;37.30;;;12.27;;
30874;SDS011;17581;43.222;27.924;2023-04-07T09:51:55;23.95;;;12.05;;
30874;SDS011;17581;43.222;27.924;2023-04-07T09:57:02;25.35;;;13.18;;
30874;SDS011;17581;43.222;27.924;2023-04-07T09:59:31;23.38;;;12.82;;
30874;SDS011;17581;43.222;27.924;2023-04-07T10:01:59;37.50;;;12.57;;
30874;SDS011;17581;43.222;27.924;2023-04-07T10:04:26;21.50;;;10.95;;
30874;SDS011;17581;43.222;27.924;2023-04-07T10:06:53;23.75;;;11.77;;
30874;SDS011;17581;43.222;27.924;2023-04-07T10:09:22;25.95;;;11.68;;
30874;SDS011;17581;43.222;27.924;2023-04-07T10:11:49;19.63;;;11.25;;
30874;SDS011;17581;43.222;27.924;2023-04-07T10:14:17;42.67;;;13.05;;
30874;SDS011;17581;43.222;27.924;2023-04-07T10:16:43;32.85;;;12.55;;
30874;SDS011;17581;43.222;27.924;2023-04-07T10:19:10;27.38;;;12.10;;
30874;SDS011;17581;43.222;27.924;2023-04-07T10:21:41;22.42;;;10.75;;
30874;SDS011;17581;43.222;27.924;2023-04-07T10:26:45;50.22;;;12.35;;
30874;SDS011;17581;43.222;27.924;2023-04-07T10:29:17;29.92;;;12.00;;
30874;SDS011;17581;43.222;27.924;2023-04-07T10:31:43;23.70;;;11.40;;
30874;SDS011;17581;43.222;27.924;2023-04-07T10:34:10;18.08;;;11.10;;
30874;SDS011;17581;43.222;27.924;2023-04-07T10:36:36;21.63;;;12.48;;
30874;SDS011;17581;43.222;27.924;2023-04-07T10:39:37;24.67;;;11.23;;
30874;SDS011;17581;43.222;27.924;2023-04-07T10:42:02;25.27;;;11.38;;
30874;SDS011;17581;43.222;27.924;2023-04-07T10:47:03;21.50;;;11.05;;
30874;SDS011;17581;43.222;27.924;2023-04-07T10:49:31;28.70;;;11.60;;
30874;SDS011;17581;43.222;27.924;2023-04-07T10:54:36;30.90;;;11.23;;
30874;SDS011;17581;43.222;27.924;2023-04-07T10:59:30;23.48;;;11.73;;
30874;SDS011;17581;43.222;27.924;2023-04-07T11:04:41;29.15;;;12.77;;
30874;SDS011;17581;43.222;27.924;2023-04-07T11:07:11;39.60;;;11.15;;
30874;SDS011;17581;43.222;27.924;2023-04-07T11:09:38;38.20;;;12.43;;
30874;SDS011;17581;43.222;27.924;2023-04-07T11:12:05;51.58;;;13.23;;
30874;SDS011;17581;43.222;27.924;2023-04-07T11:14:31;43.10;;;14.25;;
30874;SDS011;17581;43.222;27.924;2023-04-07T11:16:58;45.55;;;14.77;;
30874;SDS011;17581;43.222;27.924;2023-04-07T11:19:27;20.35;;;11.48;;
30874;SDS011;17581;43.222;27.924;2023-04-07T11:24:45;25.20;;;11.60;;
30874;SDS011;17581;43.222;27.924;2023-04-07T11:27:14;27.15;;;11.65;;
30874;SDS011;17581;43.222;27.924;2023-04-07T11:29:40;26.15;;;11.57;;
30874;SDS011;17581;43.222;27.924;2023-04-07T11:32:05;22.15;;;12.75;;
30874;SDS011;17581;43.222;27.924;2023-04-07T11:34:32;23.98;;;12.25;;
30874;SDS011;17581;43.222;27.924;2023-04-07T11:37:20;30.92;;;11.45;;
30874;SDS011;17581;43.222;27.924;2023-04-07T11:39:51;25.38;;;13.52;;
30874;SDS011;17581;43.222;27.924;2023-04-07T11:42:33;25.15;;;13.27;;
30874;SDS011;17581;43.222;27.924;2023-04-07T11:45:16;28.83;;;12.80;;
30874;SDS011;17581;43.222;27.924;2023-04-07T11:47:43;19.70;;;12.48;;
30874;SDS011;17581;43.222;27.924;2023-04-07T11:50:09;31.50;;;12.90;;
30874;SDS011;17581;43.222;27.924;2023-04-07T11:52:45;23.55;;;12.05;;
30874;SDS011;17581;43.222;27.924;2023-04-07T11:55:21;30.63;;;13.52;;
30874;SDS011;17581;43.222;27.924;2023-04-07T11:57:48;51.28;;;14.93;;
30874;SDS011;17581;43.222;27.924;2023-04-07T12:00:18;76.82;;;17.23;;
30874;SDS011;17581;43.222;27.924;2023-04-07T12:02:44;38.78;;;15.38;;
30874;SDS011;17581;43.222;27.924;2023-04-07T12:05:10;45.90;;;15.68;;
30874;SDS011;17581;43.222;27.924;2023-04-07T12:07:36;26.85;;;13.50;;
30874;SDS011;17581;43.222;27.924;2023-04-07T12:10:22;22.77;;;13.18;;
30874;SDS011;17581;43.222;27.924;2023-04-07T12:12:51;29.08;;;13.40;;
30874;SDS011;17581;43.222;27.924;2023-04-07T12:15:17;29.23;;;15.48;;
30874;SDS011;17581;43.222;27.924;2023-04-07T12:17:43;26.10;;;13.05;;
30874;SDS011;17581;43.222;27.924;2023-04-07T12:20:13;30.20;;;14.88;;
30874;SDS011;17581;43.222;27.924;2023-04-07T12:22:40;53.33;;;17.02;;
30874;SDS011;17581;43.222;27.924;2023-04-07T12:25:06;23.88;;;13.60;;
30874;SDS011;17581;43.222;27.924;2023-04-07T12:27:32;36.90;;;15.10;;
30874;SDS011;17581;43.222;27.924;2023-04-07T12:29:57;26.33;;;14.40;;
30874;SDS011;17581;43.222;27.924;2023-04-07T12:32:22;37.10;;;14.38;;
30874;SDS011;17581;43.222;27.924;2023-04-07T12:34:48;47.95;;;14.73;;
30874;SDS011;17581;43.222;27.924;2023-04-07T12:37:14;32.47;;;15.25;;
30874;SDS011;17581;43.222;27.924;2023-04-07T12:39:39;41.72;;;15.32;;
30874;SDS011;17581;43.222;27.924;2023-04-07T12:42:05;38.47;;;15.63;;
30874;SDS011;17581;43.222;27.924;2023-04-07T12:44:31;35.38;;;12.50;;
30874;SDS011;17581;43.222;27.924;2023-04-07T12:46:57;36.53;;;12.77;;
30874;SDS011;17581;43.222;27.924;2023-04-07T12:49:22;34.10;;;13.80;;
30874;SDS011;17581;43.222;27.924;2023-04-07T12:51:47;42.05;;;14.68;;
30874;SDS011;17581;43.222;27.924;2023-04-07T12:54:13;38.35;;;13.52;;
30874;SDS011;17581;43.222;27.924;2023-04-07T12:56:39;37.90;;;13.30;;
30874;SDS011;17581;43.222;27.924;2023-04-07T12:59:06;35.40;;;13.75;;
30874;SDS011;17581;43.222;27.924;2023-04-07T13:01:32;37.17;;;12.73;;
30874;SDS011;17581;43.222;27.924;2023-04-07T13:03:59;37.53;;;12.23;;
30874;SDS011;17581;43.222;27.924;2023-04-07T13:06:25;30.05;;;12.70;;
30874;SDS011;17581;43.222;27.924;2023-04-07T13:08:51;36.33;;;13.00;;
30874;SDS011;17581;43.222;27.924;2023-04-07T13:11:16;47.78;;;14.10;;
30874;SDS011;17581;43.222;27.924;2023-04-07T13:13:42;31.67;;;14.35;;
30874;SDS011;17581;43.222;27.924;2023-04-07T13:16:07;35.42;;;16.95;;
30874;SDS011;17581;43.222;27.924;2023-04-07T13:18:33;44.35;;;16.58;;
30874;SDS011;17581;43.222;27.924;2023-04-07T13:20:58;42.30;;;16.92;;
30874;SDS011;17581;43.222;27.924;2023-04-07T13:23:24;35.83;;;17.50;;
30874;SDS011;17581;43.222;27.924;2023-04-07T13:25:49;41.65;;;20.83;;
30874;SDS011;17581;43.222;27.924;2023-04-07T13:28:15;35.90;;;17.70;;
30874;SDS011;17581;43.222;27.924;2023-04-07T13:30:42;41.08;;;17.17;;
30874;SDS011;17581;43.222;27.924;2023-04-07T13:33:08;48.92;;;18.17;;
30874;SDS011;17581;43.222;27.924;2023-04-07T13:35:33;34.22;;;15.93;;
30874;SDS011;17581;43.222;27.924;2023-04-07T13:37:59;54.35;;;17.17;;
30874;SDS011;17581;43.222;27.924;2023-04-07T13:40:26;40.88;;;15.55;;
30874;SDS011;17581;43.222;27.924;2023-04-07T13:42:51;42.15;;;17.25;;
30874;SDS011;17581;43.222;27.924;2023-04-07T13:45:17;48.75;;;16.05;;
30874;SDS011;17581;43.222;27.924;2023-04-07T13:47:42;34.15;;;16.73;;
30874;SDS011;17581;43.222;27.924;2023-04-07T13:50:08;43.60;;;15.85;;
30874;SDS011;17581;43.222;27.924;2023-04-07T13:52:33;41.45;;;17.10;;
30874;SDS011;17581;43.222;27.924;2023-04-07T13:54:59;33.30;;;15.57;;
30874;SDS011;17581;43.222;27.924;2023-04-07T13:57:25;28.75;;;14.85;;
30874;SDS011;17581;43.222;27.924;2023-04-07T13:59:51;31.65;;;15.75;;
30874;SDS011;17581;43.222;27.924;2023-04-07T14:02:17;53.55;;;17.67;;
30874;SDS011;17581;43.222;27.924;2023-04-07T14:04:43;52.35;;;19.27;;
30874;SDS011;17581;43.222;27.924;2023-04-07T14:07:09;31.33;;;15.68;;
30874;SDS011;17581;43.222;27.924;2023-04-07T14:09:34;36.13;;;15.50;;
30874;SDS011;17581;43.222;27.924;2023-04-07T14:12:00;71.47;;;23.60;;
30874;SDS011;17581;43.222;27.924;2023-04-07T14:14:26;104.60;;;20.95;;
30874;SDS011;17581;43.222;27.924;2023-04-07T14:16:51;35.38;;;15.27;;
30874;SDS011;17581;43.222;27.924;2023-04-07T14:19:20;103.82;;;18.75;;
30874;SDS011;17581;43.222;27.924;2023-04-07T14:21:51;44.30;;;14.93;;
30874;SDS011;17581;43.222;27.924;2023-04-07T14:24:17;35.10;;;14.70;;
30874;SDS011;17581;43.222;27.924;2023-04-07T14:26:43;53.30;;;15.77;;
30874;SDS011;17581;43.222;27.924;2023-04-07T14:29:09;35.35;;;15.35;;
30874;SDS011;17581;43.222;27.924;2023-04-07T14:31:38;99.82;;;22.45;;
30874;SDS011;17581;43.222;27.924;2023-04-07T14:34:04;48.38;;;17.27;;
30874;SDS011;17581;43.222;27.924;2023-04-07T14:36:30;39.35;;;15.48;;
30874;SDS011;17581;43.222;27.924;2023-04-07T14:38:56;42.88;;;15.32;;
30874;SDS011;17581;43.222;27.924;2023-04-07T14:41:23;39.95;;;14.80;;